Time;durP1;ratioP1;P1;durP2;ratioP2;P2;SDS_P1;SDS_P2;PMS_P1;PMS_P2;Temp;Humidity;BMP_temperature;BMP_pressure;BME280_temperature;BME280_humidity;BME280_pressure;Samples;Min_cycle;Max_cycle;Signal;HPM_P1;HPM_P2
2023/03/16 00:01:10;;;;;;;4.00;2.88;;;;;;;4.99;47.65;99467.50;5088793;28;20075;-72
2023/03/16 00:03:37;;;;;;;5.30;3.35;;;;;;;4.96;47.81;99468.47;5088368;28;20044;-69
2023/03/16 00:06:04;;;;;;;5.07;3.28;;;;;;;4.94;48.06;99470.28;5088567;28;20089;-69
2023/03/16 00:08:31;;;;;;;4.50;2.90;;;;;;;4.92;47.98;99471.22;5089025;28;20041;-69
2023/03/16 00:10:57;;;;;;;3.63;2.60;;;;;;;4.88;48.18;99477.44;5087870;28;20041;-70
2023/03/16 00:13:25;;;;;;;4.63;3.08;;;;;;;4.87;48.19;99479.22;5088337;28;20032;-70
2023/03/16 00:15:54;;;;;;;3.55;3.13;;;;;;;4.53;48.57;99418.97;5088932;28;20090;-69
2023/03/16 00:18:25;;;;;;;3.97;3.10;;;;;;;4.26;47.95;99406.66;5087491;28;20040;-70
2023/03/16 00:20:54;;;;;;;3.80;2.70;;;;;;;3.86;48.61;99339.56;5088807;28;20040;-70
2023/03/16 00:23:25;;;;;;;3.60;3.03;;;;;;;4.80;48.36;99475.91;5087377;28;20036;-70
2023/03/16 00:25:54;;;;;;;3.40;2.72;;;;;;;4.62;48.38;99446.72;5088232;28;20098;-71
2023/03/16 00:28:21;;;;;;;3.95;3.10;;;;;;;4.78;48.67;99487.38;5088477;28;20068;-71
2023/03/16 00:30:48;;;;;;;3.15;2.55;;;;;;;4.73;48.74;99490.13;5087582;28;20037;-72
2023/03/16 00:33:16;;;;;;;3.45;2.58;;;;;;;4.70;48.89;99492.00;5088007;28;20059;-71
2023/03/16 00:35:48;;;;;;;4.07;2.50;;;;;;;2.52;49.24;99158.13;5088303;28;20108;-70
2023/03/16 00:38:15;;;;;;;3.20;2.70;;;;;;;4.62;48.87;99489.59;5088206;28;20032;-71
2023/03/16 00:40:42;;;;;;;3.65;2.90;;;;;;;4.58;48.98;99503.69;5087070;28;20046;-71
2023/03/16 00:43:09;;;;;;;3.72;2.65;;;;;;;4.58;48.90;99510.72;5086998;28;20040;-71
2023/03/16 00:45:36;;;;;;;3.83;2.92;;;;;;;3.94;48.86;99397.03;5087803;28;20040;-70
2023/03/16 00:48:03;;;;;;;3.20;2.55;;;;;;;4.58;48.96;99510.72;5088115;28;20067;-70
2023/03/16 00:50:31;;;;;;;4.40;2.90;;;;;;;4.52;49.05;99509.13;5087929;28;20259;-69
2023/03/16 00:52:58;;;;;;;3.50;2.90;;;;;;;4.52;49.09;99509.13;5086819;28;20040;-70
2023/03/16 00:55:25;;;;;;;3.30;2.95;;;;;;;4.50;49.03;99508.31;5088275;28;20056;-70
2023/03/16 00:57:53;;;;;;;4.20;2.90;;;;;;;4.47;49.14;99506.63;5087642;28;20066;-71
2023/03/16 01:00:21;;;;;;;3.55;2.70;;;;;;;4.47;49.32;99508.38;5086816;28;20044;-70
2023/03/16 01:02:48;;;;;;;3.83;3.20;;;;;;;3.89;49.39;99415.53;5086877;28;20032;-70
2023/03/16 01:05:15;;;;;;;3.55;2.90;;;;;;;4.47;49.11;99517.13;5086900;28;20036;-71
2023/03/16 01:07:43;;;;;;;3.92;3.00;;;;;;;3.08;49.13;99278.81;5087629;28;20047;-70
2023/03/16 01:10:11;;;;;;;3.80;2.95;;;;;;;3.33;49.09;99330.56;5086709;28;20048;-71
2023/03/16 01:12:38;;;;;;;4.30;3.42;;;;;;;0.32;48.99;98819.63;5086342;28;20106;-70
2023/03/16 01:15:06;;;;;;;3.97;3.08;;;;;;;4.44;49.11;99518.97;5086359;28;20051;-70
2023/03/16 01:17:34;;;;;;;3.40;2.95;;;;;;;3.87;49.20;99435.69;5086521;28;20334;-70
2023/03/16 01:20:01;;;;;;;3.92;3.53;;;;;;;4.37;49.36;99530.53;5087178;28;20044;-70
2023/03/16 01:22:28;;;;;;;4.10;2.90;;;;;;;4.34;49.40;99535.88;5087089;28;20029;-70
2023/03/16 01:24:57;;;;;;;3.63;3.00;;;;;;;3.93;49.52;99472.22;5087471;28;20045;-70
2023/03/16 01:27:25;;;;;;;3.90;3.20;;;;;;;4.29;49.58;99532.50;5086982;28;20056;-70
2023/03/16 01:29:51;;;;;;;4.25;3.85;;;;;;;4.30;49.58;99540.34;5086922;28;20075;-70
2023/03/16 01:32:18;;;;;;;3.53;2.90;;;;;;;4.32;49.53;99541.16;5086347;28;20166;-70
2023/03/16 01:34:45;;;;;;;3.33;3.00;;;;;;;4.19;49.86;99539.72;5087388;28;20055;-70
2023/03/16 01:37:12;;;;;;;5.53;3.55;;;;;;;3.89;49.90;99502.06;5086871;28;20312;-70
2023/03/16 01:39:38;;;;;;;3.67;3.30;;;;;;;4.09;50.16;99549.59;5086739;28;20036;-70
2023/03/16 01:42:07;;;;;;;3.45;3.08;;;;;;;4.09;50.16;99546.97;5086179;28;20074;-70
2023/03/16 01:44:51;;;;;;;3.97;3.35;;;;;;;2.26;51.84;99239.00;5087241;28;20050;-70
2023/03/16 01:47:18;;;;;;;3.63;3.20;;;;;;;3.35;49.92;99423.06;5087223;28;20048;-70
2023/03/16 01:49:47;;;;;;;4.53;3.35;;;;;;;4.03;50.06;99548.91;5085581;28;20050;-70
2023/03/16 01:52:19;;;;;;;4.80;3.53;;;;;;;4.00;50.04;99556.84;5086741;28;20041;-71
2023/03/16 01:54:48;;;;;;;4.13;3.40;;;;;;;4.02;49.96;99561.16;5085985;28;20115;-70
2023/03/16 01:57:18;;;;;;;4.10;3.70;;;;;;;-0.22;50.34;98848.56;5086814;28;20145;-71
2023/03/16 01:59:51;;;;;;;5.25;3.92;;;;;;;3.94;50.45;99563.09;5085858;28;20036;-71
2023/03/16 02:02:21;;;;;;;4.72;3.47;;;;;;;3.91;50.28;99563.19;5086538;28;20040;-71
2023/03/16 02:04:52;;;;;;;3.90;3.40;;;;;;;3.89;50.22;99572.84;5085572;28;20054;-70
2023/03/16 02:07:21;;;;;;;5.50;3.95;;;;;;;3.67;50.19;99532.31;5086120;28;20059;-71
2023/03/16 02:09:51;;;;;;;4.70;4.18;;;;;;;3.25;50.31;99458.25;5086648;28;20036;-70
2023/03/16 02:12:20;;;;;;;4.55;3.63;;;;;;;3.90;50.22;99582.44;5086324;28;20269;-70
2023/03/16 02:14:48;;;;;;;4.50;4.07;;;;;;;3.91;50.08;99573.69;5086463;28;20071;-70
2023/03/16 02:17:19;;;;;;;4.43;3.92;;;;;;;1.93;50.20;99261.53;5085828;28;20040;-71
2023/03/16 02:19:57;;;;;;;4.13;3.50;;;;;;;3.50;51.49;99515.25;5085198;28;20292;-70
2023/03/16 02:22:24;;;;;;;6.15;3.72;;;;;;;3.81;50.41;99566.94;5086268;28;20079;-69
2023/03/16 02:24:51;;;;;;;4.15;3.75;;;;;;;3.77;50.29;99574.00;5086487;28;20196;-70
2023/03/16 02:27:27;;;;;;;4.95;4.10;;;;;;;3.71;51.67;99573.28;5085813;28;20044;-69
2023/03/16 02:30:02;;;;;;;5.18;3.97;;;;;;;2.69;51.56;99422.00;5086088;28;20201;-69
2023/03/16 02:32:31;;;;;;;4.25;3.83;;;;;;;3.37;50.76;99507.72;5085725;28;20036;-70
2023/03/16 02:35:00;;;;;;;4.47;3.97;;;;;;;3.28;50.64;99508.78;5085538;28;20199;-69
2023/03/16 02:37:26;;;;;;;4.20;3.80;;;;;;;-2.68;50.50;98484.75;5085708;28;20041;-69
2023/03/16 02:39:53;;;;;;;4.80;4.25;;;;;;;3.64;50.74;99574.34;5084884;28;20089;-69
2023/03/16 02:42:23;;;;;;;5.93;4.63;;;;;;;3.33;50.88;99535.75;5084458;28;20196;-69
2023/03/16 02:44:54;;;;;;;4.75;4.22;;;;;;;3.52;51.50;99571.09;5085200;28;20055;-70
2023/03/16 02:47:30;;;;;;;6.25;4.30;;;;;;;3.52;51.48;99584.22;5084779;28;20047;-70
2023/03/16 02:49:57;;;;;;;5.03;3.80;;;;;;;3.53;50.87;99596.41;5068297;28;20296;-69
2023/03/16 02:52:24;;;;;;;5.63;4.10;;;;;;;3.51;50.98;99584.25;5086026;28;20058;-69
2023/03/16 02:54:50;;;;;;;5.68;3.97;;;;;;;3.51;50.88;99592.97;5086034;28;20048;-69
2023/03/16 02:57:17;;;;;;;4.72;3.90;;;;;;;3.53;50.89;99593.78;5085763;28;20296;-71
2023/03/16 02:59:44;;;;;;;4.80;4.30;;;;;;;3.54;50.92;99599.91;5084674;28;20050;-70
2023/03/16 03:02:11;;;;;;;5.18;4.60;;;;;;;2.98;50.72;99504.25;5086021;28;20036;-70
2023/03/16 03:04:40;;;;;;;5.30;4.22;;;;;;;3.52;50.97;99609.56;5084628;28;20319;-70
2023/03/16 03:07:07;;;;;;;5.47;4.97;;;;;;;2.93;51.04;99527.91;5085476;28;20067;-69
2023/03/16 03:09:34;;;;;;;5.55;4.97;;;;;;;3.46;51.30;99609.69;5086008;28;20175;-69
2023/03/16 03:12:01;;;;;;;4.80;4.05;;;;;;;3.46;51.04;99620.16;5085316;28;20312;-70
2023/03/16 03:14:28;;;;;;;5.70;4.55;;;;;;;2.63;51.20;99481.44;5085300;28;20044;-69
2023/03/16 03:16:55;;;;;;;5.18;4.68;;;;;;;3.44;51.00;99622.81;5085339;28;20051;-70
2023/03/16 03:19:23;;;;;;;5.45;4.35;;;;;;;3.24;51.12;99587.47;5085648;28;20047;-69
2023/03/16 03:21:55;;;;;;;5.13;4.07;;;;;;;3.25;51.17;99600.53;5085589;28;20109;-70
2023/03/16 03:24:23;;;;;;;5.68;4.38;;;;;;;2.04;50.99;99397.22;5085806;28;20051;-70
2023/03/16 03:26:50;;;;;;;5.40;4.88;;;;;;;3.43;51.18;99638.59;5085298;28;20094;-69
2023/03/16 03:29:18;;;;;;;6.05;4.80;;;;;;;2.70;51.11;99509.22;5085446;28;20050;-70
2023/03/16 03:31:45;;;;;;;6.65;5.10;;;;;;;2.32;51.01;99450.69;5085768;28;20082;-70
2023/03/16 03:34:11;;;;;;;6.20;5.00;;;;;;;3.42;51.19;99636.84;5085367;28;20055;-70
2023/03/16 03:36:40;;;;;;;5.47;4.88;;;;;;;3.43;51.01;99636.81;5084512;28;20048;-70
2023/03/16 03:39:08;;;;;;;4.90;4.50;;;;;;;3.41;51.25;99637.75;5085372;28;20056;-70
2023/03/16 03:41:35;;;;;;;7.00;4.75;;;;;;;2.97;51.22;99573.22;5085123;28;20063;-70
2023/03/16 03:44:01;;;;;;;6.35;4.88;;;;;;;3.39;51.53;99639.53;5084336;28;20058;-69
2023/03/16 03:46:28;;;;;;;6.45;4.78;;;;;;;2.83;51.21;99550.81;5085055;28;20089;-70
2023/03/16 03:49:00;;;;;;;5.18;4.68;;;;;;;3.32;51.22;99630.94;5085056;28;20257;-70
2023/03/16 03:51:27;;;;;;;6.03;4.60;;;;;;;3.35;51.50;99645.75;5085570;28;20346;-70
2023/03/16 03:53:54;;;;;;;5.68;4.68;;;;;;;3.31;51.46;99638.84;5085984;28;20041;-69
2023/03/16 03:56:22;;;;;;;6.03;4.68;;;;;;;3.32;51.44;99649.28;5088703;28;20111;-69
2023/03/16 03:58:48;;;;;;;6.00;4.88;;;;;;;3.31;51.46;99649.31;5088945;28;20056;-69
2023/03/16 04:01:15;;;;;;;5.13;4.63;;;;;;;3.30;51.60;99655.47;5088862;28;20043;-70
2023/03/16 04:03:42;;;;;;;5.45;4.40;;;;;;;3.27;51.54;99640.66;5089420;28;20180;-69
2023/03/16 04:06:10;;;;;;;5.60;5.00;;;;;;;3.27;51.42;99643.28;5088621;28;20107;-70
2023/03/16 04:08:37;;;;;;;5.47;4.20;;;;;;;3.00;51.45;99608.06;5088711;28;20040;-69
2023/03/16 04:11:04;;;;;;;4.97;4.35;;;;;;;3.22;51.88;99645.13;5088079;28;20055;-70
2023/03/16 04:13:32;;;;;;;5.65;4.60;;;;;;;3.17;51.75;99645.22;5087486;28;20128;-69
2023/03/16 04:16:01;;;;;;;5.68;5.05;;;;;;;3.16;51.65;99655.75;5088338;28;20055;-70
2023/03/16 04:18:28;;;;;;;6.03;5.07;;;;;;;3.15;51.69;99647.03;5088534;28;20107;-69
2023/03/16 04:20:55;;;;;;;6.13;5.00;;;;;;;3.15;51.89;99654.88;5087427;28;20051;-69
2023/03/16 04:23:23;;;;;;;5.85;4.97;;;;;;;3.11;51.96;99647.13;5088424;28;20040;-70
2023/03/16 04:25:50;;;;;;;5.20;4.70;;;;;;;3.10;52.03;99655.88;5087015;28;20036;-70
2023/03/16 04:28:17;;;;;;;5.15;4.50;;;;;;;2.86;52.03;99631.03;5088123;28;20101;-69
2023/03/16 04:30:45;;;;;;;5.20;4.70;;;;;;;3.05;52.07;99670.81;5088099;28;20051;-69
2023/03/16 04:33:13;;;;;;;6.18;5.00;;;;;;;3.02;52.12;99670.88;5087123;28;20036;-70
2023/03/16 04:35:40;;;;;;;7.97;5.13;;;;;;;2.99;52.05;99663.94;5087946;28;20070;-70
2023/03/16 04:38:09;;;;;;;6.03;5.25;;;;;;;3.03;52.10;99673.47;5070586;28;20115;-70
2023/03/16 04:40:36;;;;;;;5.10;4.60;;;;;;;3.04;52.03;99676.94;5088440;28;20041;-70
2023/03/16 04:43:03;;;;;;;7.82;5.53;;;;;;;3.01;52.12;99684.84;5088247;28;20067;-70
2023/03/16 04:45:29;;;;;;;7.15;5.43;;;;;;;2.62;52.15;99619.28;5088061;28;20058;-70
2023/03/16 04:47:58;;;;;;;6.13;5.53;;;;;;;2.96;52.44;99692.78;5086741;28;20047;-70
2023/03/16 04:50:25;;;;;;;5.20;4.70;;;;;;;2.97;52.10;99696.28;5088032;28;20368;-69
2023/03/16 04:52:52;;;;;;;6.35;5.30;;;;;;;2.96;52.41;99691.94;5086815;28;20047;-70
2023/03/16 04:55:18;;;;;;;7.13;5.57;;;;;;;2.95;52.47;99696.31;5087918;28;20225;-69
2023/03/16 04:57:45;;;;;;;6.80;5.35;;;;;;;2.95;52.33;99696.31;5087880;28;20040;-69
2023/03/16 05:00:17;;;;;;;7.13;5.60;;;;;;;2.94;52.28;99704.19;5086742;28;20292;-69
2023/03/16 05:02:44;;;;;;;6.75;5.93;;;;;;;2.93;52.40;99707.69;5087816;28;20237;-70
2023/03/16 05:05:12;;;;;;;7.80;5.80;;;;;;;0.20;52.41;99252.53;5086264;28;20153;-70
2023/03/16 05:07:41;;;;;;;6.53;5.75;;;;;;;2.89;52.54;99712.13;5086492;28;20048;-70
2023/03/16 05:10:09;;;;;;;6.07;5.25;;;;;;;2.88;52.17;99713.03;5087879;28;20052;-70
2023/03/16 05:12:36;;;;;;;6.18;4.63;;;;;;;2.00;52.28;99568.97;5087218;28;20091;-70
2023/03/16 05:15:03;;;;;;;5.93;5.32;;;;;;;1.99;52.35;99603.84;5087458;28;20040;-70
2023/03/16 05:17:30;;;;;;;6.35;5.22;;;;;;;2.84;52.49;99721.81;5087230;28;20063;-70
2023/03/16 05:19:57;;;;;;;6.45;4.93;;;;;;;2.07;52.62;99594.09;5087099;28;20052;-70
2023/03/16 05:22:25;;;;;;;7.88;5.28;;;;;;;2.82;52.70;99740.16;5085959;28;20056;-70
2023/03/16 05:24:52;;;;;;;6.85;5.70;;;;;;;2.82;52.68;99720.97;5087097;28;20040;-70
2023/03/16 05:27:20;;;;;;;5.72;4.90;;;;;;;2.79;52.55;99723.66;5086180;28;20153;-70
2023/03/16 05:29:47;;;;;;;7.72;5.40;;;;;;;2.79;52.79;99731.50;5086967;28;20071;-70
2023/03/16 05:32:15;;;;;;;6.30;5.70;;;;;;;2.64;52.75;99705.59;5087531;28;20282;-70
2023/03/16 05:34:43;;;;;;;6.07;5.47;;;;;;;2.20;53.04;99687.16;5085920;28;20115;-71
2023/03/16 05:37:10;;;;;;;6.07;5.28;;;;;;;2.42;52.81;99677.19;5086209;28;20300;-71
2023/03/16 05:39:38;;;;;;;5.25;4.47;;;;;;;2.54;52.82;99690.06;5086678;28;20236;-70
2023/03/16 05:42:05;;;;;;;7.78;5.85;;;;;;;2.40;52.88;99663.28;5085824;28;20036;-70
2023/03/16 05:44:32;;;;;;;6.25;5.65;;;;;;;2.78;52.92;99741.13;5085827;28;20063;-71
2023/03/16 05:46:59;;;;;;;6.32;5.63;;;;;;;2.79;52.91;99744.59;5087039;28;20111;-71
2023/03/16 05:49:26;;;;;;;8.13;5.78;;;;;;;2.73;52.86;99729.88;5085846;28;20052;-71
2023/03/16 05:51:53;;;;;;;8.25;5.85;;;;;;;2.22;52.95;99646.16;5086460;28;20044;-71
2023/03/16 05:54:20;;;;;;;6.63;5.90;;;;;;;2.80;53.07;99744.56;5086067;28;20111;-69
2023/03/16 05:56:48;;;;;;;7.72;6.53;;;;;;;2.81;53.09;99748.91;5086321;28;20040;-70
2023/03/16 05:59:16;;;;;;;6.45;5.75;;;;;;;1.32;52.67;99517.78;5086530;28;20111;-71
2023/03/16 06:01:43;;;;;;;7.05;5.75;;;;;;;2.80;53.11;99759.41;5086391;28;20056;-70
2023/03/16 06:04:10;;;;;;;10.88;6.43;;;;;;;2.78;53.08;99759.44;5085542;28;20281;-70
2023/03/16 06:06:37;;;;;;;7.07;6.28;;;;;;;2.79;53.40;99763.78;5085597;28;20203;-70
2023/03/16 06:09:04;;;;;;;8.15;6.72;;;;;;;2.87;53.06;99766.28;5085503;28;20040;-70
2023/03/16 06:11:31;;;;;;;8.88;7.13;;;;;;;2.97;52.80;99770.44;5086466;28;20079;-70
2023/03/16 06:14:00;;;;;;;7.28;6.22;;;;;;;3.10;52.78;99773.72;5086090;28;20047;-71
2023/03/16 06:16:27;;;;;;;9.23;7.10;;;;;;;2.66;52.20;99683.75;5085054;28;20062;-70
2023/03/16 06:18:55;;;;;;;7.30;5.90;;;;;;;3.27;52.13;99752.44;5085031;28;20043;-70
2023/03/16 06:21:22;;;;;;;7.30;5.93;;;;;;;3.60;51.67;99777.13;5085908;28;20384;-70
2023/03/16 06:23:49;;;;;;;7.18;5.70;;;;;;;3.79;51.11;99783.72;5085686;28;20036;-70
2023/03/16 06:26:16;;;;;;;7.00;6.03;;;;;;;3.65;51.24;99721.09;5085644;28;20048;-71
2023/03/16 06:28:43;;;;;;;7.80;6.47;;;;;;;4.19;50.71;99783.72;5086296;28;20036;-70
2023/03/16 06:31:11;;;;;;;6.78;6.07;;;;;;;4.12;50.63;99735.75;5084890;28;20040;-70
2023/03/16 06:33:38;;;;;;;6.70;5.93;;;;;;;4.23;50.06;99721.56;5086108;28;20042;-71
2023/03/16 06:36:05;;;;;;;9.95;6.88;;;;;;;4.58;49.94;99747.81;5086181;28;20041;-70
2023/03/16 06:38:32;;;;;;;7.38;6.20;;;;;;;4.63;49.65;99716.22;5068272;28;20046;-70
2023/03/16 06:40:59;;;;;;;6.85;5.85;;;;;;;5.25;49.11;99782.91;5084701;28;20169;-70
2023/03/16 06:43:26;;;;;;;5.82;5.00;;;;;;;5.48;48.91;99789.31;5085983;28;20046;-70
2023/03/16 06:45:52;;;;;;;6.65;5.88;;;;;;;5.36;48.43;99728.28;5085406;28;20036;-70
2023/03/16 06:48:20;;;;;;;7.28;5.47;;;;;;;5.30;48.02;99691.66;5084687;28;20090;-70
2023/03/16 06:50:48;;;;;;;8.63;6.00;;;;;;;6.19;47.64;99791.63;5084946;28;20040;-70
2023/03/16 06:53:14;;;;;;;7.70;6.72;;;;;;;6.38;47.45;99798.91;5085523;28;20036;-71
2023/03/16 06:55:41;;;;;;;8.15;5.90;;;;;;;6.64;47.08;99798.06;5085788;28;20203;-71
2023/03/16 06:58:08;;;;;;;7.18;6.07;;;;;;;6.85;46.49;99803.59;5068363;28;20219;-71
2023/03/16 07:00:35;;;;;;;6.93;5.55;;;;;;;6.64;46.45;99739.28;5085936;28;20046;-71
2023/03/16 07:03:02;;;;;;;6.93;5.88;;;;;;;7.12;46.20;99793.91;5084663;28;20050;-71
2023/03/16 07:05:30;;;;;;;9.77;6.03;;;;;;;6.77;45.91;99708.09;5084457;28;20292;-71
2023/03/16 07:07:57;;;;;;;8.35;5.53;;;;;;;7.43;45.70;99797.22;5085915;28;20040;-72
2023/03/16 07:10:25;;;;;;;8.95;5.63;;;;;;;7.61;45.48;99795.72;5085925;28;20111;-72
2023/03/16 07:12:52;;;;;;;7.45;5.00;;;;;;;7.35;45.21;99714.91;5068042;28;20082;-71
2023/03/16 07:15:19;;;;;;;7.68;5.57;;;;;;;8.00;44.92;99788.97;5085540;28;20043;-71
2023/03/16 07:17:46;;;;;;;6.05;4.82;;;;;;;8.13;44.60;99783.22;5085904;28;20112;-72
2023/03/16 07:20:14;;;;;;;6.00;5.38;;;;;;;7.62;44.46;99684.88;5085240;28;20075;-72
2023/03/16 07:22:43;;;;;;;6.15;4.97;;;;;;;8.38;44.34;99794.53;5085372;28;20044;-72
2023/03/16 07:25:11;;;;;;;7.47;6.57;;;;;;;8.59;44.36;99798.13;5085270;28;20059;-72
2023/03/16 07:27:40;;;;;;;6.32;5.05;;;;;;;8.25;43.86;99712.31;5084178;28;20304;-70
2023/03/16 07:30:10;;;;;;;5.72;4.85;;;;;;;8.95;43.49;99786.03;5070504;28;20040;-73
2023/03/16 07:32:37;;;;;;;10.80;4.72;;;;;;;9.09;43.16;99787.25;5088272;28;20052;-72
2023/03/16 07:35:04;;;;;;;7.43;5.28;;;;;;;8.91;43.08;99730.72;5088954;28;20036;-72
2023/03/16 07:37:33;;;;;;;6.15;4.45;;;;;;;9.30;42.74;99783.72;5089306;28;20136;-72
2023/03/16 07:40:02;;;;;;;5.32;4.60;;;;;;;9.45;42.44;99788.38;5088302;28;20037;-72
2023/03/16 07:42:29;;;;;;;5.65;4.47;;;;;;;9.68;42.39;99781.22;5088945;28;20063;-72
2023/03/16 07:44:56;;;;;;;5.70;5.00;;;;;;;9.55;42.03;99727.97;5088349;28;20331;-73
2023/03/16 07:47:24;;;;;;;7.80;5.05;;;;;;;9.48;41.75;99718.59;5088094;28;20136;-73
2023/03/16 07:49:51;;;;;;;8.43;4.60;;;;;;;10.11;41.75;99785.41;5088758;28;20056;-71
2023/03/16 07:52:17;;;;;;;5.57;4.47;;;;;;;9.97;41.30;99722.50;5088808;28;20048;-71
2023/03/16 07:54:44;;;;;;;6.95;4.68;;;;;;;9.80;40.78;99680.94;5088053;28;20124;-71
2023/03/16 07:57:13;;;;;;;8.07;5.63;;;;;;;10.50;40.35;99783.53;5088159;28;20200;-71
2023/03/16 07:59:40;;;;;;;7.63;4.93;;;;;;;10.65;40.27;99787.22;5087690;28;20051;-71
2023/03/16 08:02:10;;;;;;;6.32;3.92;;;;;;;10.58;40.17;99759.31;5088854;28;20208;-71
2023/03/16 08:04:37;;;;;;;10.73;4.60;;;;;;;10.56;40.17;99739.97;5087543;28;20124;-72
2023/03/16 08:07:04;;;;;;;6.00;4.38;;;;;;;10.89;40.15;99785.19;5088885;28;20104;-72
2023/03/16 08:09:34;;;;;;;6.80;4.50;;;;;;;11.05;39.88;99788.81;5088112;28;20044;-71
2023/03/16 08:12:01;;;;;;;5.93;4.05;;;;;;;11.17;39.57;99795.28;5088466;28;20090;-72
2023/03/16 08:14:29;;;;;;;5.57;4.30;;;;;;;8.13;38.79;99248.19;5070544;28;20036;-71
2023/03/16 08:16:56;;;;;;;5.35;4.03;;;;;;;11.47;38.75;99795.50;5087392;28;20308;-71
2023/03/16 08:19:23;;;;;;;5.60;3.70;;;;;;;11.64;38.62;99797.28;5088697;28;20054;-71
2023/03/16 08:21:50;;;;;;;4.57;3.63;;;;;;;11.67;38.07;99784.72;5088428;28;20059;-72
2023/03/16 08:24:17;;;;;;;5.32;3.50;;;;;;;11.80;38.07;99801.72;5088362;28;20044;-72
2023/03/16 08:26:44;;;;;;;7.35;4.00;;;;;;;11.89;37.71;99808.34;5087184;28;20049;-72
2023/03/16 08:29:11;;;;;;;9.18;3.90;;;;;;;12.01;37.76;99809.50;5088312;28;20068;-72
2023/03/16 08:31:41;;;;;;;6.72;4.07;;;;;;;11.56;37.40;99729.53;5087215;28;20044;-71
2023/03/16 08:34:09;;;;;;;5.50;3.80;;;;;;;11.98;37.39;99775.97;5087057;28;20367;-71
2023/03/16 08:36:37;;;;;;;7.13;4.57;;;;;;;12.21;37.49;99800.47;5087814;28;20287;-71
2023/03/16 08:39:04;;;;;;;8.55;4.57;;;;;;;11.86;37.23;99726.16;5086939;28;20029;-71
2023/03/16 08:41:31;;;;;;;5.60;3.55;;;;;;;12.51;36.62;99807.63;5085648;28;20243;-72
2023/03/16 08:43:58;;;;;;;5.28;3.50;;;;;;;12.60;36.47;99805.38;5087137;28;20128;-71
2023/03/16 08:46:26;;;;;;;5.78;3.45;;;;;;;11.46;36.33;99645.16;5087015;28;20330;-71
2023/03/16 08:48:55;;;;;;;5.32;3.67;;;;;;;12.68;35.46;99808.47;5087072;28;20060;-72
2023/03/16 08:51:22;;;;;;;7.10;5.28;;;;;;;12.67;35.54;99804.97;5087939;28;20048;-72
2023/03/16 08:53:49;;;;;;;8.52;5.70;;;;;;;12.70;35.34;99806.59;5087117;28;20040;-71
2023/03/16 08:56:16;;;;;;;11.45;6.85;;;;;;;12.71;35.31;99809.16;5087505;28;20192;-72
2023/03/16 08:58:44;;;;;;;7.75;4.85;;;;;;;12.02;35.13;99695.19;5087536;28;20132;-71
2023/03/16 09:01:12;;;;;;;5.35;3.20;;;;;;;12.66;35.21;99754.53;5086951;28;20036;-71
2023/03/16 09:03:40;;;;;;;4.03;2.80;;;;;;;13.09;34.85;99806.94;5088013;28;20277;-71
2023/03/16 09:06:11;;;;;;;4.53;2.97;;;;;;;13.21;33.63;99804.50;5086938;28;20200;-71
2023/03/16 09:08:39;;;;;;;7.80;3.70;;;;;;;12.80;33.93;99714.69;5086814;28;20090;-71
2023/03/16 09:11:08;;;;;;;4.07;2.20;;;;;;;13.29;33.56;99804.94;5087035;28;20040;-72
2023/03/16 09:13:37;;;;;;;5.63;3.72;;;;;;;13.07;33.58;99776.91;5087577;28;20040;-71
2023/03/16 09:16:04;;;;;;;4.15;2.63;;;;;;;12.24;33.59;99631.09;5086410;28;20112;-72
2023/03/16 09:18:32;;;;;;;5.28;2.67;;;;;;;12.93;33.15;99726.31;5086361;28;20032;-71
2023/03/16 09:21:00;;;;;;;3.97;2.28;;;;;;;13.13;32.56;99747.28;5087335;28;20044;-71
2023/03/16 09:23:30;;;;;;;4.90;2.45;;;;;;;13.50;32.39;99803.69;5086328;28;20199;-72
2023/03/16 09:25:58;;;;;;;7.28;2.55;;;;;;;13.66;32.27;99806.28;5087594;28;20158;-72
2023/03/16 09:28:26;;;;;;;3.63;2.15;;;;;;;12.79;31.98;99671.28;5086207;28;20128;-72
2023/03/16 09:30:53;;;;;;;4.97;1.92;;;;;;;13.57;31.37;99809.50;5086912;28;20107;-72
2023/03/16 09:33:20;;;;;;;5.55;2.42;;;;;;;12.60;31.61;99705.22;5085848;28;20086;-72
2023/03/16 09:35:48;;;;;;;3.72;1.92;;;;;;;13.29;31.58;99743.69;5069369;28;20043;-72
2023/03/16 09:38:15;;;;;;;5.10;2.78;;;;;;;12.51;31.19;99618.00;5086919;28;20108;-72
2023/03/16 09:40:43;;;;;;;4.90;2.45;;;;;;;13.69;31.24;99809.59;5086896;28;20045;-72
2023/03/16 09:43:45;;;;;;;6.28;2.75;;;;;;;13.88;28.36;99811.16;5086762;28;20206;-72
2023/03/16 09:46:19;;;;;;;4.85;2.60;;;;;;;13.47;30.75;99726.66;5086496;28;20115;-72
2023/03/16 09:48:47;;;;;;;4.97;2.53;;;;;;;13.28;31.39;99721.56;5085616;28;20040;-72
2023/03/16 09:51:20;;;;;;;7.28;2.83;;;;;;;13.86;29.16;99765.09;5086529;28;20052;-72
2023/03/16 09:53:55;;;;;;;4.85;2.65;;;;;;;14.07;30.13;99793.06;5087292;28;20059;-72
2023/03/16 09:56:30;;;;;;;5.80;2.88;;;;;;;14.09;29.01;99797.34;5085442;28;20046;-71
2023/03/16 09:58:58;;;;;;;6.63;2.53;;;;;;;13.89;30.99;99739.13;5086639;28;20054;-72
2023/03/16 10:01:37;;;;;;;7.38;3.17;;;;;;;14.35;29.14;99798.38;5086278;28;20212;-72
2023/03/16 10:04:15;;;;;;;4.85;2.22;;;;;;;14.28;28.33;99796.19;5085171;28;20201;-72
2023/03/16 10:06:50;;;;;;;15.88;11.73;;;;;;;14.12;29.24;99799.81;5085431;28;20040;-72
2023/03/16 10:09:27;;;;;;;12.52;7.43;;;;;;;13.60;28.85;99711.63;5086464;28;20074;-72
2023/03/16 10:11:58;;;;;;;6.18;3.42;;;;;;;14.16;29.65;99792.50;5085850;28;20041;-72
2023/03/16 10:14:31;;;;;;;10.98;3.13;;;;;;;12.97;29.05;99588.66;5085119;28;20053;-72
2023/03/16 10:17:03;;;;;;;5.20;2.83;;;;;;;13.63;29.02;99710.59;5085621;28;20032;-72
2023/03/16 10:19:37;;;;;;;5.72;2.80;;;;;;;14.27;28.46;99808.66;5086049;28;20050;-72
2023/03/16 10:22:17;;;;;;;7.70;3.67;;;;;;;13.99;26.89;99758.03;5085033;28;20075;-72
2023/03/16 10:24:55;;;;;;;4.70;2.65;;;;;;;14.35;28.06;99806.38;5086020;28;20395;-72
2023/03/16 10:27:29;;;;;;;3.10;2.05;;;;;;;14.25;27.58;99777.72;5085999;28;20216;-72
2023/03/16 10:29:57;;;;;;;4.32;2.22;;;;;;;14.41;29.12;99799.78;5085649;28;20051;-72
2023/03/16 10:32:42;;;;;;;6.60;2.92;;;;;;;14.39;28.45;99807.03;5144755;27;20619;-72
2023/03/16 10:35:22;;;;;;;4.32;2.70;;;;;;;14.08;26.34;99742.34;5144280;27;20055;-73
2023/03/16 10:37:50;;;;;;;5.65;3.70;;;;;;;14.27;28.80;99792.66;5143869;27;20118;-73
2023/03/16 10:40:19;;;;;;;6.18;3.65;;;;;;;14.17;28.87;99796.00;5143461;27;20059;-72
2023/03/16 10:42:46;;;;;;;6.70;3.17;;;;;;;11.41;29.20;99355.31;5143619;27;20039;-73
2023/03/16 10:45:24;;;;;;;14.65;11.13;;;;;;;13.95;27.31;99808.00;5143261;28;20101;-72
2023/03/16 10:47:52;;;;;;;13.18;10.30;;;;;;;11.55;28.84;99469.47;5142703;28;20043;-72
2023/03/16 10:50:24;;;;;;;6.82;5.82;;;;;;;13.36;27.92;99727.28;5146055;27;20235;-71
2023/03/16 10:52:52;;;;;;;9.38;6.60;;;;;;;13.16;29.51;99669.91;5146932;27;20053;-71
2023/03/16 10:55:23;;;;;;;10.77;8.68;;;;;;;13.64;28.63;99753.09;5145084;27;20063;-71
2023/03/16 10:57:53;;;;;;;13.35;6.68;;;;;;;13.15;29.13;99664.69;5145336;27;20035;-72
2023/03/16 11:00:23;;;;;;;11.25;9.65;;;;;;;13.86;28.82;99784.59;5145323;27;20126;-72
2023/03/16 11:02:54;;;;;;;28.00;22.67;;;;;;;13.95;28.66;99797.34;5146387;28;20031;-72
2023/03/16 11:05:28;;;;;;;10.68;9.02;;;;;;;14.00;27.95;99789.06;5143846;28;20096;-72
2023/03/16 11:08:00;;;;;;;6.18;4.75;;;;;;;14.10;28.06;99788.41;5143907;27;20036;-72
2023/03/16 11:10:32;;;;;;;5.60;3.28;;;;;;;13.66;28.02;99732.56;5144154;27;20057;-72
2023/03/16 11:13:03;;;;;;;5.70;3.05;;;;;;;13.97;27.72;99741.28;5146259;27;20061;-71
2023/03/16 11:15:38;;;;;;;4.03;3.05;;;;;;;13.85;26.87;99728.75;5144520;27;20118;-72
2023/03/16 11:18:09;;;;;;;;;;;;;;;14.06;26.19;99786.03;5144162;27;20352;-72
2023/03/16 11:20:37;;;;;;;5.50;3.22;;;;;;;14.15;29.13;99781.91;5142143;28;19990;-72
2023/03/16 11:23:14;;;;;;;3.75;2.97;;;;;;;14.22;27.84;99777.91;5143112;27;20126;-72
2023/03/16 11:25:48;;;;;;;5.43;3.05;;;;;;;14.05;26.42;99741.66;5144855;27;20214;-72
2023/03/16 11:28:22;;;;;;;5.53;3.58;;;;;;;14.17;28.47;99762.22;5143271;27;20264;-72
2023/03/16 11:30:58;;;;;;;9.35;7.05;;;;;;;14.11;27.05;99767.94;5141638;28;20051;-72
2023/03/16 11:33:29;;;;;;;7.82;5.68;;;;;;;13.88;27.96;99728.56;5143380;27;20291;-72
2023/03/16 11:36:06;;;;;;;12.60;9.80;;;;;;;13.93;27.07;99735.31;5142203;27;20122;-72
2023/03/16 11:38:39;;;;;;;6.55;4.78;;;;;;;14.13;27.40;99766.03;5143098;28;20046;-72
2023/03/16 11:41:10;;;;;;;6.38;4.50;;;;;;;14.24;27.33;99763.53;5142660;27;20043;-72
2023/03/16 11:43:52;;;;;;;6.90;4.90;;;;;;;14.02;26.20;99731.19;5130185;27;20081;-72
2023/03/16 11:46:23;;;;;;;9.68;7.60;;;;;;;12.90;27.70;99548.28;5128741;27;20044;-71